createdAt,value
2022-12-27T00:02:00.611Z,99654.31
2022-12-27T00:04:27.657Z,99653.25
2022-12-27T00:06:54.311Z,99658.69
2022-12-27T00:09:20.935Z,99662.53
2022-12-27T00:11:47.506Z,99656.47
2022-12-27T00:14:14.114Z,99668.19
2022-12-27T00:16:40.849Z,99660.75
2022-12-27T00:19:07.636Z,99662.59
2022-12-27T00:21:34.180Z,99662.81
2022-12-27T00:24:01.112Z,99662.00
2022-12-27T00:26:30.541Z,99666.38
2022-12-27T00:28:57.656Z,99669.53
2022-12-27T00:31:25.798Z,99671.34
2022-12-27T00:33:54.739Z,99677.44
2022-12-27T00:36:23.800Z,99662.16
2022-12-27T00:38:51.235Z,99674.31
2022-12-27T00:41:18.113Z,99669.19
2022-12-27T00:43:45.290Z,99666.72
2022-12-27T00:46:12.520Z,99667.50
2022-12-27T00:48:39.874Z,99679.25
2022-12-27T00:51:22.083Z,99691.09
2022-12-27T00:53:49.793Z,99693.91
2022-12-27T00:56:19.801Z,99687.50
2022-12-27T00:58:46.366Z,99697.59
2022-12-27T01:01:17.752Z,99697.31
2022-12-27T01:03:44.798Z,99701.97
2022-12-27T01:06:16.952Z,99694.28
2022-12-27T01:08:44.587Z,99701.00
2022-12-27T01:11:11.931Z,99702.94
2022-12-27T01:13:39.632Z,99712.75
2022-12-27T01:16:19.155Z,99707.13
2022-12-27T01:18:46.516Z,99715.25
2022-12-27T01:21:22.394Z,99725.88
2022-12-27T01:23:49.854Z,99740.75
2022-12-27T01:26:20.831Z,99747.78
2022-12-27T01:28:48.057Z,99745.28
2022-12-27T01:31:17.912Z,99749.63
2022-12-27T01:33:44.884Z,99756.47
2022-12-27T01:36:17.303Z,99762.00
2022-12-27T01:38:44.622Z,99758.72
2022-12-27T01:41:33.813Z,99773.56
2022-12-27T01:44:00.958Z,99764.22
2022-12-27T01:46:28.036Z,99761.19
2022-12-27T01:48:55.440Z,99779.25
2022-12-27T01:51:22.438Z,99788.72
2022-12-27T01:53:52.029Z,99769.03
2022-12-27T01:56:31.016Z,99779.44
2022-12-27T01:59:05.476Z,99779.75
2022-12-27T02:01:40.090Z,99780.63
2022-12-27T02:04:16.648Z,99798.31
2022-12-27T02:06:43.357Z,99788.34
2022-12-27T02:09:31.007Z,99779.88
2022-12-27T02:11:58.546Z,99783.66
2022-12-27T02:14:51.933Z,99771.72
2022-12-27T02:17:30.556Z,99771.94
2022-12-27T02:20:23.375Z,99790.13
2022-12-27T02:23:17.888Z,99807.41
2022-12-27T02:26:05.774Z,99794.09
2022-12-27T02:28:51.130Z,99805.53
2022-12-27T02:31:33.211Z,99804.72
2022-12-27T02:34:05.081Z,99794.75
2022-12-27T02:36:35.347Z,99790.59
2022-12-27T02:39:03.951Z,99802.66
2022-12-27T02:41:52.408Z,99798.66
2022-12-27T02:44:37.998Z,99810.47
2022-12-27T02:47:35.997Z,99814.72
2022-12-27T02:50:22.053Z,99821.03
2022-12-27T02:53:17.919Z,99818.16
2022-12-27T02:56:10.291Z,99810.38
2022-12-27T02:58:55.405Z,99813.75
2022-12-27T03:02:25.804Z,99821.53
2022-12-27T03:05:18.053Z,99835.16
2022-12-27T03:08:20.778Z,99826.22
2022-12-27T03:11:19.015Z,99832.31
2022-12-27T03:14:18.504Z,99836.44
2022-12-27T03:16:56.233Z,99834.03
2022-12-27T03:19:51.724Z,99835.75
2022-12-27T03:22:39.750Z,99853.53
2022-12-27T03:25:33.195Z,99846.19
2022-12-27T03:28:47.168Z,99821.69
2022-12-27T03:31:43.474Z,99823.84
2022-12-27T03:34:32.426Z,99819.16
2022-12-27T03:37:22.663Z,99811.81
2022-12-27T03:40:03.597Z,99834.25
2022-12-27T03:42:51.957Z,99839.75
2022-12-27T03:45:42.289Z,99838.13
2022-12-27T03:48:13.693Z,99835.50
2022-12-27T03:50:50.541Z,99853.88
2022-12-27T03:53:33.136Z,99861.13
2022-12-27T03:56:00.375Z,99860.56
2022-12-27T03:58:26.926Z,99875.88
2022-12-27T04:00:53.462Z,99893.31
2022-12-27T04:03:20.066Z,99896.19
2022-12-27T04:05:46.641Z,99883.53
2022-12-27T04:08:31.515Z,99890.41
2022-12-27T04:11:16.787Z,99883.09
2022-12-27T04:14:01.822Z,99885.69
2022-12-27T04:16:47.185Z,99878.63
2022-12-27T04:19:32.325Z,99892.41
2022-12-27T04:22:17.272Z,99898.31
2022-12-27T04:25:02.110Z,99901.28
2022-12-27T04:27:47.472Z,99904.47
2022-12-27T04:30:32.439Z,99914.13
2022-12-27T04:33:17.452Z,99928.09
2022-12-27T04:35:43.951Z,99930.16
2022-12-27T04:38:10.477Z,99932.47
2022-12-27T04:40:55.343Z,99930.59
2022-12-27T04:43:40.592Z,99944.75
2022-12-27T04:46:41.690Z,99940.13
2022-12-27T04:49:45.137Z,99962.09
2022-12-27T04:52:36.913Z,99962.28
2022-12-27T04:55:20.542Z,99963.41
2022-12-27T04:57:47.660Z,99965.28
2022-12-27T05:00:34.802Z,99964.16
2022-12-27T05:03:06.708Z,99979.81
2022-12-27T05:05:35.183Z,100002.81
2022-12-27T05:08:21.256Z,100008.84
2022-12-27T05:11:06.662Z,100018.22
2022-12-27T05:13:51.809Z,100012.94
2022-12-27T05:16:18.584Z,100009.03
2022-12-27T05:18:45.124Z,100020.50
2022-12-27T05:21:11.852Z,100025.03
2022-12-27T05:24:01.701Z,100019.28
2022-12-27T05:26:32.591Z,100025.19
2022-12-27T05:28:59.840Z,100031.06
2022-12-27T05:31:28.242Z,100032.38
2022-12-27T05:33:55.379Z,100028.31
2022-12-27T05:36:22.134Z,100047.34
2022-12-27T05:38:48.839Z,100041.66
2022-12-27T05:41:15.717Z,100037.78
2022-12-27T05:43:42.515Z,100049.88
2022-12-27T05:46:12.126Z,100047.19
2022-12-27T05:48:39.381Z,100057.06
2022-12-27T05:51:08.046Z,100058.88
2022-12-27T05:53:34.788Z,100078.94
2022-12-27T05:56:01.939Z,100079.28
2022-12-27T05:58:29.144Z,100086.59
2022-12-27T06:00:55.936Z,100086.00
2022-12-27T06:03:23.541Z,100094.59
2022-12-27T06:05:50.254Z,100110.75
2022-12-27T06:08:17.038Z,100107.66
2022-12-27T06:10:43.626Z,100118.50
2022-12-27T06:13:10.233Z,100134.66
2022-12-27T06:15:37.280Z,100138.50
2022-12-27T06:18:03.942Z,100153.03
2022-12-27T06:20:30.478Z,100173.34
2022-12-27T06:22:59.275Z,100181.88
2022-12-27T06:25:25.936Z,100181.06
2022-12-27T06:27:52.667Z,100187.53
2022-12-27T06:30:19.460Z,100188.81
2022-12-27T06:32:46.046Z,100211.56
2022-12-27T06:35:12.627Z,100218.50
2022-12-27T06:37:39.381Z,100214.28
2022-12-27T06:40:06.664Z,100214.94
2022-12-27T06:42:33.239Z,100216.25
2022-12-27T06:44:59.835Z,100238.00
2022-12-27T06:47:26.405Z,100247.53
2022-12-27T06:49:52.981Z,100257.34
2022-12-27T06:52:19.586Z,100244.59
2022-12-27T06:54:46.324Z,100242.84
2022-12-27T06:57:12.925Z,100266.69
2022-12-27T06:59:39.445Z,100279.56
2022-12-27T07:02:06.263Z,100277.97
2022-12-27T07:04:32.969Z,100297.47
2022-12-27T07:06:59.540Z,100291.97
2022-12-27T07:09:26.049Z,100298.13
2022-12-27T07:11:54.067Z,100307.75
2022-12-27T07:14:20.650Z,100337.56
2022-12-27T07:16:49.762Z,100325.97
2022-12-27T07:19:16.383Z,100330.63
2022-12-27T07:21:43.066Z,100341.28
2022-12-27T07:24:09.728Z,100349.19
2022-12-27T07:26:36.319Z,100357.41
2022-12-27T07:29:03.030Z,100357.41
2022-12-27T07:31:32.404Z,100362.41
2022-12-27T07:34:01.791Z,100382.22
2022-12-27T07:36:31.925Z,100377.34
2022-12-27T07:38:58.560Z,100388.16
2022-12-27T07:41:25.916Z,100402.97
2022-12-27T07:43:52.775Z,100389.88
2022-12-27T07:46:22.560Z,100394.25
2022-12-27T07:48:49.912Z,100397.00
2022-12-27T07:51:17.740Z,100390.41
2022-12-27T07:53:45.013Z,100401.53
2022-12-27T07:56:25.438Z,100403.44
2022-12-27T07:58:54.184Z,100397.06
2022-12-27T08:01:22.892Z,100405.13
2022-12-27T08:03:50.297Z,100409.16
2022-12-27T08:06:22.660Z,100411.78
2022-12-27T08:08:50.480Z,100423.72
2022-12-27T08:11:17.071Z,100422.41
2022-12-27T08:13:44.692Z,100423.22
2022-12-27T08:16:23.346Z,100435.00
2022-12-27T08:18:50.312Z,100435.34
2022-12-27T08:21:16.997Z,100453.72
2022-12-27T08:23:43.567Z,100439.69
2022-12-27T08:26:10.599Z,100449.47
2022-12-27T08:28:37.172Z,100457.16
2022-12-27T08:31:10.274Z,100456.38
2022-12-27T08:33:37.428Z,100451.72
2022-12-27T08:38:56.445Z,100463.41
2022-12-27T08:41:23.594Z,100471.06
2022-12-27T08:43:50.335Z,100475.00
2022-12-27T08:46:18.894Z,100493.44
2022-12-27T08:48:48.812Z,100492.47
2022-12-27T08:51:21.930Z,100504.31
2022-12-27T08:53:57.340Z,100505.25
2022-12-27T08:56:25.031Z,100504.22
2022-12-27T08:58:51.542Z,100506.66
2022-12-27T09:01:18.499Z,100519.69
2022-12-27T09:03:45.211Z,100524.63
2022-12-27T09:06:17.227Z,100519.09
2022-12-27T09:08:45.234Z,100526.09
2022-12-27T09:11:29.960Z,100518.34
2022-12-27T09:13:59.337Z,100527.03
2022-12-27T09:16:30.556Z,100526.00
2022-12-27T09:18:59.205Z,100526.72
2022-12-27T09:21:28.370Z,100521.13
2022-12-27T09:23:55.337Z,100514.84
2022-12-27T09:26:24.549Z,100519.06
2022-12-27T09:28:51.420Z,100518.00
2022-12-27T09:31:19.838Z,100511.22
2022-12-27T09:33:46.732Z,100517.00
2022-12-27T09:36:15.868Z,100519.84
2022-12-27T09:38:43.441Z,100529.19
2022-12-27T09:42:11.680Z,100506.13
2022-12-27T09:44:37.420Z,100520.81
2022-12-27T09:47:15.562Z,100537.94
2022-12-27T09:49:47.492Z,100504.69
2022-12-27T09:52:22.670Z,100527.13
2022-12-27T09:55:15.949Z,100518.88
2022-12-27T09:57:45.323Z,100510.50
2022-12-27T10:00:32.777Z,100495.81
2022-12-27T10:03:05.172Z,100499.84
2022-12-27T10:05:35.121Z,100518.09
2022-12-27T10:08:26.200Z,100517.78
2022-12-27T10:11:09.286Z,100513.41
2022-12-27T10:13:56.451Z,100522.63
2022-12-27T10:16:29.764Z,100520.38
2022-12-27T10:19:16.942Z,100531.19
2022-12-27T10:22:04.505Z,100519.41
2022-12-27T10:24:51.220Z,100518.75
2022-12-27T10:27:29.489Z,100538.75
2022-12-27T10:29:59.412Z,100540.88
2022-12-27T10:32:26.841Z,100534.41
2022-12-27T10:35:00.055Z,100527.09
2022-12-27T10:37:27.687Z,100533.72
2022-12-27T10:39:55.295Z,100529.66
2022-12-27T10:42:47.522Z,100532.22
2022-12-27T10:45:34.342Z,100532.84
2022-12-27T10:48:16.970Z,100521.22
2022-12-27T10:50:47.554Z,100525.09
2022-12-27T10:53:35.380Z,100530.94
2022-12-27T10:56:10.919Z,100517.59
2022-12-27T10:58:39.969Z,100521.22
2022-12-27T11:01:26.361Z,100523.25
2022-12-27T11:04:08.563Z,100521.69
2022-12-27T11:06:35.431Z,100526.00
2022-12-27T11:09:23.593Z,100511.22
2022-12-27T11:11:50.102Z,100533.72
2022-12-27T11:14:21.009Z,100529.41
2022-12-27T11:16:49.150Z,100522.91
2022-12-27T11:19:27.517Z,100529.16
2022-12-27T11:21:55.604Z,100518.00
2022-12-27T11:24:22.860Z,100531.28
2022-12-27T11:27:01.511Z,100517.00
2022-12-27T11:29:31.006Z,100517.88
2022-12-27T11:32:06.126Z,100508.16
2022-12-27T11:34:36.573Z,100514.22
2022-12-27T11:37:14.171Z,100508.16
2022-12-27T11:39:41.897Z,100513.88
2022-12-27T11:42:38.294Z,100499.50
2022-12-27T11:45:33.478Z,100496.69
2022-12-27T11:48:14.755Z,100500.91
2022-12-27T11:51:03.963Z,100494.06
2022-12-27T11:54:05.984Z,100488.91
2022-12-27T11:56:36.966Z,100485.63
2022-12-27T11:59:37.488Z,100479.50
2022-12-27T12:02:41.568Z,100468.50
2022-12-27T12:05:32.962Z,100474.84
2022-12-27T12:08:27.485Z,100466.19
2022-12-27T12:11:18.822Z,100464.56
2022-12-27T12:14:20.470Z,100451.16
2022-12-27T12:17:05.055Z,100457.91
2022-12-27T12:19:53.221Z,100453.41
2022-12-27T12:22:50.016Z,100465.09
2022-12-27T12:25:25.371Z,100454.28
2022-12-27T12:28:56.317Z,100450.06
2022-12-27T12:31:26.832Z,100447.69
2022-12-27T12:34:26.817Z,100449.63
2022-12-27T12:36:53.357Z,100451.63
2022-12-27T12:39:34.876Z,100451.88
2022-12-27T12:42:19.410Z,100444.22
2022-12-27T12:45:14.824Z,100445.69
2022-12-27T12:48:00.111Z,100434.28
2022-12-27T12:51:04.419Z,100446.22
2022-12-27T12:54:05.062Z,100447.16
2022-12-27T12:56:49.409Z,100438.16
2022-12-27T12:59:34.238Z,100435.69
2022-12-27T13:02:38.426Z,100435.06
2022-12-27T13:05:08.130Z,100424.41
2022-12-27T13:07:52.758Z,100428.44
2022-12-27T13:10:44.610Z,100427.63
2022-12-27T13:13:23.232Z,100430.88
2022-12-27T13:16:18.664Z,100431.69
2022-12-27T13:19:04.751Z,100431.69
2022-12-27T13:22:01.412Z,100436.69
2022-12-27T13:25:14.918Z,100428.78
2022-12-27T13:28:02.704Z,100430.00
2022-12-27T13:30:54.147Z,100435.19
2022-12-27T13:33:49.603Z,100434.69
2022-12-27T13:36:27.059Z,100429.53
2022-12-27T13:39:27.823Z,100428.53
2022-12-27T13:42:31.797Z,100428.84
2022-12-27T13:45:26.658Z,100448.63
2022-12-27T13:48:05.055Z,100440.03
2022-12-27T13:50:49.648Z,100440.97
2022-12-27T13:53:35.009Z,100446.59
2022-12-27T13:56:54.013Z,100440.06
2022-12-27T14:00:17.261Z,100436.09
2022-12-27T14:03:02.607Z,100442.16
2022-12-27T14:05:50.910Z,100447.06
2022-12-27T14:08:59.077Z,100458.13
2022-12-27T14:11:31.380Z,100470.50
2022-12-27T14:14:00.253Z,100470.91
2022-12-27T14:16:26.689Z,100471.56
2022-12-27T14:19:19.230Z,100471.50
2022-12-27T14:22:17.332Z,100478.50
2022-12-27T14:24:59.028Z,100482.00
2022-12-27T14:28:02.392Z,100479.69
2022-12-27T14:31:04.327Z,100473.50
2022-12-27T14:33:55.884Z,100484.09
2022-12-27T14:36:43.599Z,100481.84
2022-12-27T14:39:31.660Z,100466.84
2022-12-27T14:42:01.165Z,100454.72
2022-12-27T14:45:04.662Z,100460.38
2022-12-27T14:48:03.145Z,100452.22
2022-12-27T14:51:49.914Z,100460.91
2022-12-27T14:54:01.847Z,100464.16
2022-12-27T14:56:47.190Z,100464.88
2022-12-27T14:59:33.969Z,100472.28
2022-12-27T15:02:28.216Z,100483.75
2022-12-27T15:04:54.690Z,100498.97
2022-12-27T15:07:34.819Z,100500.47
2022-12-27T15:10:13.486Z,100502.19
2022-12-27T15:13:11.661Z,100493.28
2022-12-27T15:16:00.064Z,100513.28
2022-12-27T15:18:51.456Z,100503.25
2022-12-27T15:22:10.006Z,100502.66
2022-12-27T15:24:39.402Z,100509.03
2022-12-27T15:27:32.938Z,100514.41
2022-12-27T15:30:18.092Z,100505.25
2022-12-27T15:33:05.031Z,100504.75
2022-12-27T15:36:08.822Z,100517.31
2022-12-27T15:38:35.299Z,100525.00
2022-12-27T15:41:05.076Z,100519.09
2022-12-27T15:44:06.254Z,100533.38
2022-12-27T15:46:56.225Z,100521.91
2022-12-27T15:49:38.717Z,100520.81
2022-12-27T15:52:19.638Z,100515.84
2022-12-27T15:55:13.034Z,100517.19
2022-12-27T15:57:54.079Z,100516.97
2022-12-27T16:00:23.385Z,100526.78
2022-12-27T16:02:51.770Z,100525.19
2022-12-27T16:05:24.303Z,100535.06
2022-12-27T16:07:59.891Z,100538.91
2022-12-27T16:10:38.348Z,100533.47
2022-12-27T16:13:04.851Z,100544.16
2022-12-27T16:15:34.114Z,100537.19
2022-12-27T16:18:02.414Z,100529.09
2022-12-27T16:20:30.366Z,100522.72
2022-12-27T16:23:06.785Z,100515.22
2022-12-27T16:25:43.400Z,100513.38
2022-12-27T16:28:16.079Z,100512.88
2022-12-27T16:30:44.279Z,100516.84
2022-12-27T16:33:25.986Z,100515.22
2022-12-27T16:36:20.222Z,100511.69
2022-12-27T16:39:10.109Z,100509.75
2022-12-27T16:41:55.107Z,100499.06
2022-12-27T16:44:24.533Z,100505.09
2022-12-27T16:47:31.459Z,100488.34
2022-12-27T16:50:38.916Z,100506.06
2022-12-27T16:53:43.737Z,100507.56
2022-12-27T16:56:14.950Z,100508.25
2022-12-27T16:58:41.786Z,100507.56
2022-12-27T17:01:30.433Z,100517.50
2022-12-27T17:03:57.944Z,100520.81
2022-12-27T17:06:32.557Z,100528.00
2022-12-27T17:09:09.573Z,100539.34
2022-12-27T17:12:00.980Z,100537.72
2022-12-27T17:14:32.110Z,100541.25
2022-12-27T17:17:16.527Z,100543.47
2022-12-27T17:19:56.281Z,100542.97
2022-12-27T17:22:28.768Z,100544.88
2022-12-27T17:25:00.990Z,100541.03
2022-12-27T17:27:39.795Z,100547.63
2022-12-27T17:30:20.394Z,100536.69
2022-12-27T17:33:00.175Z,100539.50
2022-12-27T17:35:57.546Z,100540.09
2022-12-27T17:38:54.771Z,100538.09
2022-12-27T17:41:47.039Z,100545.47
2022-12-27T17:44:39.836Z,100540.69
2022-12-27T17:47:47.593Z,100556.28
2022-12-27T17:50:24.144Z,100545.13
2022-12-27T17:53:27.756Z,100557.69
2022-12-27T17:56:39.361Z,100558.78
2022-12-27T17:59:07.679Z,100560.28
2022-12-27T18:01:40.978Z,100557.31
2022-12-27T18:04:08.041Z,100561.69
2022-12-27T18:06:37.108Z,100568.16
2022-12-27T18:09:04.714Z,100568.97
2022-12-27T18:11:33.254Z,100568.16
2022-12-27T18:14:00.695Z,100573.19
2022-12-27T18:16:37.383Z,100568.13
2022-12-27T18:19:04.662Z,100565.97
2022-12-27T18:21:32.173Z,100564.66
2022-12-27T18:23:58.768Z,100563.97
2022-12-27T18:26:39.523Z,100553.81
2022-12-27T18:29:06.365Z,100569.81
2022-12-27T18:31:42.113Z,100567.16
2022-12-27T18:34:17.757Z,100576.44
2022-12-27T18:37:21.721Z,100581.44
2022-12-27T18:39:56.441Z,100583.34
2022-12-27T18:42:41.133Z,100586.41
2022-12-27T18:45:29.880Z,100582.75
2022-12-27T18:48:04.655Z,100580.81
2022-12-27T18:50:33.388Z,100590.16
2022-12-27T18:53:39.424Z,100587.06
2022-12-27T18:56:16.345Z,100578.63
2022-12-27T18:59:01.501Z,100584.00
2022-12-27T19:01:36.836Z,100585.47
2022-12-27T19:04:17.113Z,100603.66
2022-12-27T19:06:54.163Z,100609.34
2022-12-27T19:09:24.085Z,100610.72
2022-12-27T19:11:53.724Z,100591.13
2022-12-27T19:14:21.835Z,100606.09
2022-12-27T19:16:55.094Z,100597.16
2022-12-27T19:19:31.400Z,100593.09
2022-12-27T19:21:58.514Z,100579.78
2022-12-27T19:24:27.890Z,100582.53
2022-12-27T19:26:56.388Z,100588.34
2022-12-27T19:29:25.701Z,100575.91
2022-12-27T19:31:56.492Z,100576.75
2022-12-27T19:34:25.065Z,100577.78
2022-12-27T19:36:52.704Z,100570.31
2022-12-27T19:39:21.753Z,100574.38
2022-12-27T19:41:49.997Z,100575.00
2022-12-27T19:44:17.274Z,100577.19
2022-12-27T19:46:43.840Z,100573.34
2022-12-27T19:51:58.052Z,100570.19
2022-12-27T19:54:27.467Z,100572.56
2022-12-27T19:56:55.094Z,100579.63
2022-12-27T19:59:24.218Z,100585.22
2022-12-27T20:01:52.571Z,100585.72
2022-12-27T20:04:19.417Z,100583.47
2022-12-27T20:06:48.550Z,100578.03
2022-12-27T20:09:19.818Z,100580.38
2022-12-27T20:11:48.617Z,100574.50
2022-12-27T20:14:17.509Z,100571.50
2022-12-27T20:16:45.537Z,100582.09
2022-12-27T20:19:15.740Z,100574.97
2022-12-27T20:21:42.519Z,100587.94
2022-12-27T20:24:12.157Z,100595.28
2022-12-27T20:26:39.416Z,100607.19
2022-12-27T20:29:06.013Z,100606.28
2022-12-27T20:31:32.602Z,100602.50
2022-12-27T20:33:59.252Z,100609.91
2022-12-27T20:36:25.869Z,100608.03
2022-12-27T20:38:52.483Z,100605.03
2022-12-27T20:41:21.203Z,100608.56
2022-12-27T20:43:47.987Z,100612.94
2022-12-27T20:46:18.461Z,100609.16
2022-12-27T20:48:46.560Z,100610.75
2022-12-27T20:51:15.989Z,100604.78
2022-12-27T20:53:43.555Z,100606.44
2022-12-27T20:56:12.931Z,100600.16
2022-12-27T20:58:39.632Z,100594.91
2022-12-27T21:01:14.784Z,100599.75
2022-12-27T21:03:42.003Z,100600.59
2022-12-27T21:06:17.628Z,100594.56
2022-12-27T21:08:49.035Z,100589.13
2022-12-27T21:11:24.285Z,100607.00
2022-12-27T21:13:50.912Z,100603.97
2022-12-27T21:16:20.708Z,100603.16
2022-12-27T21:18:48.333Z,100615.91
2022-12-27T21:21:21.183Z,100604.66
2022-12-27T21:23:48.720Z,100605.28
2022-12-27T21:26:18.775Z,100603.31
2022-12-27T21:28:45.751Z,100609.19
2022-12-27T21:31:13.927Z,100600.44
2022-12-27T21:33:41.309Z,100615.69
2022-12-27T21:36:12.612Z,100599.94
2022-12-27T21:38:39.540Z,100597.28
2022-12-27T21:41:14.677Z,100596.84
2022-12-27T21:43:41.654Z,100597.97
2022-12-27T21:46:11.637Z,100591.75
2022-12-27T21:48:38.300Z,100594.69
2022-12-27T21:51:16.425Z,100589.84
2022-12-27T21:53:43.918Z,100589.03
2022-12-27T21:56:11.668Z,100585.50
2022-12-27T21:58:39.095Z,100590.41
2022-12-27T22:01:12.508Z,100591.19
2022-12-27T22:03:40.917Z,100582.78
2022-12-27T22:06:10.927Z,100576.84
2022-12-27T22:08:37.729Z,100577.97
2022-12-27T22:11:04.335Z,100573.63
2022-12-27T22:13:31.007Z,100580.19
2022-12-27T22:15:59.275Z,100582.06
2022-12-27T22:18:26.183Z,100580.75
2022-12-27T22:20:59.364Z,100579.78
2022-12-27T22:23:25.895Z,100576.84
2022-12-27T22:25:52.433Z,100576.06
2022-12-27T22:28:18.956Z,100580.91
2022-12-27T22:30:45.505Z,100577.06
2022-12-27T22:33:12.108Z,100578.13
2022-12-27T22:35:38.686Z,100571.84
2022-12-27T22:38:05.210Z,100575.13
2022-12-27T22:40:41.523Z,100569.91
2022-12-27T22:43:12.631Z,100565.09
2022-12-27T22:45:42.330Z,100564.06
2022-12-27T22:48:09.016Z,100560.47
2022-12-27T22:50:37.926Z,100553.06
2022-12-27T22:53:04.793Z,100550.31
2022-12-27T22:55:31.361Z,100559.00
2022-12-27T22:57:58.056Z,100556.56
2022-12-27T23:00:24.719Z,100556.81
2022-12-27T23:02:51.341Z,100550.53
2022-12-27T23:05:18.109Z,100553.69
2022-12-27T23:08:03.473Z,100551.03
2022-12-27T23:10:31.257Z,100550.78
2022-12-27T23:12:57.836Z,100549.94
2022-12-27T23:15:24.387Z,100545.53
2022-12-27T23:17:52.140Z,100549.34
2022-12-27T23:20:18.818Z,100542.38
2022-12-27T23:22:45.341Z,100541.91
2022-12-27T23:25:11.902Z,100541.41
2022-12-27T23:27:38.487Z,100540.38
2022-12-27T23:30:05.478Z,100540.91
2022-12-27T23:32:32.051Z,100533.59
2022-12-27T23:34:58.645Z,100532.78
2022-12-27T23:37:25.159Z,100539.25
2022-12-27T23:39:51.711Z,100542.25
2022-12-27T23:42:18.224Z,100542.22
2022-12-27T23:44:44.828Z,100540.84
2022-12-27T23:47:11.402Z,100529.97
2022-12-27T23:49:37.897Z,100531.31
2022-12-27T23:52:04.672Z,100518.88
2022-12-27T23:54:31.330Z,100524.00
2022-12-27T23:56:57.837Z,100513.44
2022-12-27T23:59:24.645Z,100511.53
